createdAt,value
2018-06-29T00:00:10.269Z,22.73
2018-06-29T00:01:10.274Z,22.80
2018-06-29T00:02:10.278Z,22.73
2018-06-29T00:03:10.280Z,22.75
2018-06-29T00:04:10.286Z,22.76
2018-06-29T00:05:10.287Z,22.72
2018-06-29T00:06:10.290Z,22.66
2018-06-29T00:07:10.295Z,22.69
2018-06-29T00:08:10.298Z,22.72
2018-06-29T00:09:10.304Z,22.68
2018-06-29T00:10:10.305Z,22.66
2018-06-29T00:11:10.309Z,22.65
2018-06-29T00:12:10.312Z,22.78
2018-06-29T00:13:10.320Z,22.65
2018-06-29T00:14:10.319Z,22.72
2018-06-29T00:15:10.323Z,22.63
2018-06-29T00:16:10.328Z,22.68
2018-06-29T00:17:10.332Z,22.65
2018-06-29T00:18:10.339Z,22.55
2018-06-29T00:19:10.341Z,22.54
2018-06-29T00:20:10.344Z,22.59
2018-06-29T00:21:10.348Z,22.63
2018-06-29T00:22:10.349Z,22.54
2018-06-29T00:23:10.354Z,22.51
2018-06-29T00:24:10.363Z,22.55
2018-06-29T00:25:10.363Z,22.53
2018-06-29T00:26:10.371Z,22.55
2018-06-29T00:27:10.371Z,22.50
2018-06-29T00:28:10.374Z,22.53
2018-06-29T00:29:10.375Z,22.53
2018-06-29T00:30:10.386Z,22.50
2018-06-29T00:31:10.383Z,22.53
2018-06-29T00:32:10.389Z,22.50
2018-06-29T00:33:10.391Z,22.48
2018-06-29T00:34:10.403Z,22.47
2018-06-29T00:35:10.397Z,22.44
2018-06-29T00:36:10.402Z,22.44
2018-06-29T00:37:10.408Z,22.43
2018-06-29T00:38:10.408Z,22.47
2018-06-29T00:39:10.411Z,22.35
2018-06-29T00:40:10.419Z,22.44
2018-06-29T00:41:10.420Z,22.41
2018-06-29T00:42:10.434Z,22.38
2018-06-29T00:43:10.437Z,22.48
2018-06-29T00:44:10.430Z,22.50
2018-06-29T00:45:10.436Z,22.43
2018-06-29T00:46:10.443Z,22.44
2018-06-29T00:47:10.443Z,22.47
2018-06-29T00:48:10.445Z,22.44
2018-06-29T00:49:10.449Z,22.50
2018-06-29T00:50:10.457Z,22.41
2018-06-29T00:51:10.523Z,22.44
2018-06-29T00:52:10.460Z,22.44
2018-06-29T00:53:10.464Z,22.44
2018-06-29T00:54:10.469Z,22.33
2018-06-29T00:55:10.496Z,22.39
2018-06-29T00:56:10.475Z,22.33
2018-06-29T00:57:10.479Z,22.32
2018-06-29T00:58:10.483Z,22.32
2018-06-29T00:59:10.521Z,22.29
2018-06-29T01:00:10.493Z,22.29
2018-06-29T01:01:10.501Z,22.33
2018-06-29T01:02:10.509Z,22.30
2018-06-29T01:03:10.501Z,22.29
2018-06-29T01:04:10.504Z,22.26
2018-06-29T01:05:10.509Z,22.33
2018-06-29T01:06:10.512Z,22.26
2018-06-29T01:07:10.514Z,22.28
2018-06-29T01:08:10.528Z,22.22
2018-06-29T01:09:10.526Z,22.29
2018-06-29T01:10:10.525Z,22.26
2018-06-29T01:11:10.529Z,22.18
2018-06-29T01:12:10.535Z,22.20
2018-06-29T01:13:10.536Z,22.23
2018-06-29T01:14:10.539Z,22.23
2018-06-29T01:15:10.546Z,22.22
2018-06-29T01:16:10.547Z,22.20
2018-06-29T01:17:10.550Z,22.18
2018-06-29T01:18:10.552Z,22.20
2018-06-29T01:19:10.554Z,22.18
2018-06-29T01:20:10.559Z,22.25
2018-06-29T01:21:10.563Z,22.11
2018-06-29T01:22:10.566Z,22.14
2018-06-29T01:23:10.570Z,22.15
2018-06-29T01:24:10.573Z,22.15
2018-06-29T01:25:10.579Z,22.14
2018-06-29T01:26:10.587Z,22.18
2018-06-29T01:27:10.583Z,22.17
2018-06-29T01:28:10.585Z,22.15
2018-06-29T01:29:10.591Z,22.18
2018-06-29T01:30:10.601Z,22.11
2018-06-29T01:31:10.596Z,22.14
2018-06-29T01:32:10.599Z,22.02
2018-06-29T01:33:10.602Z,22.13
2018-06-29T01:34:10.648Z,22.18
2018-06-29T01:35:10.614Z,22.08
2018-06-29T01:36:10.640Z,22.14
2018-06-29T01:37:10.616Z,22.18
2018-06-29T01:38:10.622Z,22.18
2018-06-29T01:39:10.626Z,22.07
2018-06-29T01:40:10.626Z,22.15
2018-06-29T01:41:10.629Z,22.10
2018-06-29T01:42:10.647Z,22.14
2018-06-29T01:43:10.637Z,22.17
2018-06-29T01:44:10.639Z,22.10
2018-06-29T01:45:10.754Z,22.08
2018-06-29T01:46:10.644Z,22.13
2018-06-29T01:47:10.637Z,22.08
2018-06-29T01:48:10.644Z,22.08
2018-06-29T01:49:10.647Z,22.06
2018-06-29T01:50:10.649Z,22.06
2018-06-29T01:51:10.650Z,22.07
2018-06-29T01:52:10.699Z,22.08
2018-06-29T01:53:10.657Z,21.99
2018-06-29T01:54:10.659Z,22.00
2018-06-29T01:55:10.666Z,22.00
2018-06-29T01:56:10.668Z,22.06
2018-06-29T01:57:10.671Z,21.98
2018-06-29T01:58:10.677Z,22.06
2018-06-29T01:59:10.677Z,22.04
2018-06-29T02:00:10.680Z,22.13
2018-06-29T02:01:10.695Z,22.08
2018-06-29T02:02:10.687Z,22.07
2018-06-29T02:03:10.691Z,22.10
2018-06-29T02:04:10.694Z,22.00
2018-06-29T02:05:10.697Z,22.02
2018-06-29T02:06:10.701Z,22.00
2018-06-29T02:07:10.703Z,22.00
2018-06-29T02:08:10.709Z,21.98
2018-06-29T02:09:10.720Z,22.00
2018-06-29T02:10:10.716Z,21.99
2018-06-29T02:11:10.729Z,21.93
2018-06-29T02:12:10.721Z,21.91
2018-06-29T02:13:10.724Z,21.93
2018-06-29T02:14:10.729Z,21.92
2018-06-29T02:15:10.730Z,21.88
2018-06-29T02:16:10.732Z,21.91
2018-06-29T02:17:10.738Z,21.89
2018-06-29T02:18:10.744Z,21.91
2018-06-29T02:19:10.743Z,21.85
2018-06-29T02:20:10.750Z,21.85
2018-06-29T02:21:10.750Z,21.88
2018-06-29T02:22:10.753Z,21.83
2018-06-29T02:23:10.813Z,21.89
2018-06-29T02:24:10.760Z,21.80
2018-06-29T02:25:10.766Z,21.79
2018-06-29T02:26:10.769Z,21.76
2018-06-29T02:27:10.769Z,21.72
2018-06-29T02:28:10.773Z,21.75
2018-06-29T02:29:10.808Z,21.76
2018-06-29T02:30:10.779Z,21.79
2018-06-29T02:31:10.796Z,21.80
2018-06-29T02:32:10.785Z,21.75
2018-06-29T02:33:10.790Z,21.73
2018-06-29T02:34:10.792Z,21.66
2018-06-29T02:35:10.796Z,21.75
2018-06-29T02:36:10.799Z,21.70
2018-06-29T02:37:10.804Z,21.66
2018-06-29T02:38:10.806Z,21.66
2018-06-29T02:39:10.808Z,21.64
2018-06-29T02:40:10.813Z,21.62
2018-06-29T02:41:10.818Z,21.64
2018-06-29T02:42:12.574Z,21.52
2018-06-29T02:43:10.827Z,21.54
2018-06-29T02:44:10.830Z,21.55
2018-06-29T02:45:10.847Z,21.42
2018-06-29T02:46:10.829Z,21.52
2018-06-29T02:47:10.842Z,21.40
2018-06-29T02:48:10.841Z,21.35
2018-06-29T02:49:10.856Z,21.37
2018-06-29T02:50:10.841Z,21.36
2018-06-29T02:51:10.846Z,21.33
2018-06-29T02:52:10.850Z,21.32
2018-06-29T02:53:10.854Z,21.33
2018-06-29T02:54:10.855Z,21.30
2018-06-29T02:55:10.860Z,21.30
2018-06-29T02:56:10.861Z,21.25
2018-06-29T02:57:10.868Z,21.24
2018-06-29T02:58:10.867Z,21.25
2018-06-29T02:59:10.871Z,21.17
2018-06-29T03:00:10.875Z,21.18
2018-06-29T03:01:10.878Z,21.15
2018-06-29T03:02:10.882Z,21.24
2018-06-29T03:03:10.883Z,21.24
2018-06-29T03:04:10.887Z,21.21
2018-06-29T03:05:10.907Z,21.18
2018-06-29T03:06:10.892Z,21.18
2018-06-29T03:07:10.896Z,21.17
2018-06-29T03:08:10.897Z,21.14
2018-06-29T03:09:10.902Z,21.14
2018-06-29T03:10:10.910Z,21.02
2018-06-29T03:11:10.907Z,21.15
2018-06-29T03:12:10.910Z,21.14
2018-06-29T03:13:10.915Z,21.15
2018-06-29T03:14:10.916Z,21.02
2018-06-29T03:15:10.926Z,21.00
2018-06-29T03:16:10.921Z,21.03
2018-06-29T03:17:10.925Z,20.96
2018-06-29T03:18:38.572Z,21.06
2018-06-29T03:19:10.933Z,20.96
2018-06-29T03:20:10.934Z,20.97
2018-06-29T03:21:10.940Z,21.02
2018-06-29T03:22:10.939Z,20.97
2018-06-29T03:23:10.942Z,21.00
2018-06-29T03:24:10.946Z,20.92
2018-06-29T03:25:10.953Z,20.85
2018-06-29T03:26:10.950Z,20.81
2018-06-29T03:27:10.953Z,20.82
2018-06-29T03:28:10.955Z,20.85
2018-06-29T03:29:10.958Z,20.80
2018-06-29T03:30:10.961Z,20.70
2018-06-29T03:31:10.966Z,20.74
2018-06-29T03:32:10.973Z,20.77
2018-06-29T03:33:10.970Z,20.75
2018-06-29T03:34:10.971Z,20.75
2018-06-29T03:35:10.974Z,20.70
2018-06-29T03:36:10.983Z,20.78
2018-06-29T03:37:10.980Z,20.77
2018-06-29T03:38:10.982Z,20.70
2018-06-29T03:39:10.985Z,20.77
2018-06-29T03:40:11.002Z,20.70
2018-06-29T03:41:10.994Z,20.78
2018-06-29T03:42:10.995Z,20.77
2018-06-29T03:43:10.994Z,20.75
2018-06-29T03:44:10.997Z,20.70
2018-06-29T03:45:11.001Z,20.85
2018-06-29T03:46:11.002Z,20.81
2018-06-29T03:47:11.009Z,20.72
2018-06-29T03:48:11.018Z,20.72
2018-06-29T03:49:11.012Z,20.74
2018-06-29T03:50:11.015Z,20.70
2018-06-29T03:51:11.016Z,20.69
2018-06-29T03:52:11.019Z,20.60
2018-06-29T03:53:11.024Z,20.62
2018-06-29T03:54:11.026Z,20.63
2018-06-29T03:55:11.027Z,20.62
2018-06-29T03:56:11.033Z,20.60
2018-06-29T03:57:11.032Z,20.59
2018-06-29T03:58:11.034Z,20.60
2018-06-29T03:59:11.039Z,20.60
2018-06-29T04:00:11.042Z,20.59
2018-06-29T04:01:11.046Z,20.60
2018-06-29T04:02:11.045Z,20.67
2018-06-29T04:03:11.094Z,20.62
2018-06-29T04:04:11.050Z,20.70
2018-06-29T04:05:11.054Z,20.72
2018-06-29T04:06:11.056Z,20.70
2018-06-29T04:07:11.057Z,20.65
2018-06-29T04:08:11.060Z,20.70
2018-06-29T04:09:11.062Z,20.75
2018-06-29T04:10:11.065Z,20.69
2018-06-29T04:11:11.069Z,20.67
2018-06-29T04:12:11.069Z,20.63
2018-06-29T04:13:11.081Z,20.69
2018-06-29T04:14:11.075Z,20.66
2018-06-29T04:15:11.078Z,20.72
2018-06-29T04:16:11.090Z,20.77
2018-06-29T04:17:11.087Z,20.72
2018-06-29T04:18:11.085Z,20.75
2018-06-29T04:19:11.089Z,20.75
2018-06-29T04:20:11.094Z,20.75
2018-06-29T04:21:11.094Z,20.70
2018-06-29T04:22:11.101Z,20.74
2018-06-29T04:23:11.099Z,20.75
2018-06-29T04:24:11.104Z,20.75
2018-06-29T04:25:11.112Z,20.85
2018-06-29T04:26:11.108Z,20.90
2018-06-29T04:27:11.111Z,20.95
2018-06-29T04:28:11.113Z,21.00
2018-06-29T04:29:11.116Z,20.99
2018-06-29T04:30:11.118Z,20.90
2018-06-29T04:31:11.122Z,20.96
2018-06-29T04:32:11.148Z,21.00
2018-06-29T04:33:11.125Z,21.03
2018-06-29T04:34:11.129Z,20.99
2018-06-29T04:35:11.131Z,21.02
2018-06-29T04:36:11.138Z,21.09
2018-06-29T04:37:11.137Z,21.15
2018-06-29T04:38:11.138Z,21.02
2018-06-29T04:39:11.143Z,21.06
2018-06-29T04:40:11.146Z,21.06
2018-06-29T04:41:11.148Z,21.07
2018-06-29T04:42:11.149Z,21.09
2018-06-29T04:43:11.152Z,21.02
2018-06-29T04:44:11.157Z,20.97
2018-06-29T04:45:11.160Z,21.11
2018-06-29T04:46:11.164Z,21.07
2018-06-29T04:47:11.175Z,21.06
2018-06-29T04:48:11.167Z,21.22
2018-06-29T04:49:11.171Z,21.17
2018-06-29T04:50:11.195Z,21.17
2018-06-29T04:51:11.177Z,21.15
2018-06-29T04:52:11.178Z,21.22
2018-06-29T04:53:11.184Z,21.20
2018-06-29T04:54:11.185Z,21.18
2018-06-29T04:55:11.188Z,21.20
2018-06-29T04:56:11.192Z,21.21
2018-06-29T04:57:11.192Z,21.27
2018-06-29T04:58:11.195Z,21.21
2018-06-29T04:59:11.228Z,21.21
2018-06-29T05:00:11.211Z,21.20
2018-06-29T05:01:11.207Z,21.15
2018-06-29T05:02:11.208Z,21.24
2018-06-29T05:03:11.209Z,21.20
2018-06-29T05:04:11.212Z,21.25
2018-06-29T05:05:11.215Z,21.25
2018-06-29T05:06:11.219Z,21.24
2018-06-29T05:07:11.223Z,21.32
2018-06-29T05:08:11.283Z,21.24
2018-06-29T05:09:11.226Z,21.29
2018-06-29T05:10:11.235Z,21.24
2018-06-29T05:11:11.230Z,21.29
2018-06-29T05:12:11.236Z,21.33
2018-06-29T05:13:11.251Z,21.32
2018-06-29T05:14:11.243Z,21.21
2018-06-29T05:15:11.242Z,21.25
2018-06-29T05:16:11.246Z,21.29
2018-06-29T05:17:11.252Z,21.25
2018-06-29T05:18:11.251Z,21.27
2018-06-29T05:19:11.253Z,21.30
2018-06-29T05:20:11.258Z,21.66
2018-06-29T05:21:11.259Z,22.23
2018-06-29T05:22:11.264Z,22.50
2018-06-29T05:23:11.266Z,22.66
2018-06-29T05:24:11.269Z,22.80
2018-06-29T05:25:11.273Z,23.15
2018-06-29T05:26:11.276Z,23.48
2018-06-29T05:27:11.316Z,23.96
2018-06-29T05:28:11.332Z,24.16
2018-06-29T05:29:11.346Z,24.30
2018-06-29T05:30:11.343Z,24.50
2018-06-29T05:31:11.295Z,24.50
2018-06-29T05:32:11.298Z,24.54
2018-06-29T05:33:11.307Z,24.63
2018-06-29T05:34:11.310Z,25.07
2018-06-29T05:35:11.312Z,25.63
2018-06-29T05:36:11.318Z,26.00
2018-06-29T05:37:11.935Z,26.13
2018-06-29T05:38:11.326Z,26.21
2018-06-29T05:39:11.336Z,26.19
2018-06-29T05:40:11.353Z,26.18
2018-06-29T05:41:11.338Z,25.96
2018-06-29T05:42:11.346Z,25.72
2018-06-29T05:43:11.350Z,25.47
2018-06-29T05:44:11.352Z,25.29
2018-06-29T05:45:11.359Z,25.07
2018-06-29T05:46:11.367Z,24.93
2018-06-29T05:47:11.368Z,24.78
2018-06-29T05:48:11.372Z,24.66
2018-06-29T05:49:11.427Z,24.61
2018-06-29T05:50:11.382Z,24.48
2018-06-29T05:51:11.389Z,24.26
2018-06-29T05:52:11.395Z,24.03
2018-06-29T05:53:11.397Z,23.88
2018-06-29T05:54:11.399Z,23.71
2018-06-29T05:55:11.410Z,23.93
2018-06-29T05:56:11.414Z,24.21
2018-06-29T05:57:11.415Z,24.38
2018-06-29T05:58:11.418Z,24.55
2018-06-29T05:59:11.425Z,24.70
2018-06-29T06:00:11.429Z,24.80
2018-06-29T06:01:11.438Z,24.74
2018-06-29T06:02:11.444Z,24.50
2018-06-29T06:03:11.443Z,24.51
2018-06-29T06:04:11.487Z,24.51
2018-06-29T06:05:11.453Z,24.58
2018-06-29T06:06:11.457Z,24.57
2018-06-29T06:07:11.468Z,24.45
2018-06-29T06:08:11.466Z,24.40
2018-06-29T06:09:11.469Z,24.32
2018-06-29T06:10:11.532Z,24.20
2018-06-29T06:11:11.484Z,24.17
2018-06-29T06:12:11.482Z,24.18
2018-06-29T06:13:11.492Z,24.17
2018-06-29T06:14:11.493Z,24.24
2018-06-29T06:15:11.523Z,24.48
2018-06-29T06:16:11.536Z,24.74
2018-06-29T06:17:11.518Z,24.86
2018-06-29T06:18:11.511Z,24.81
2018-06-29T06:19:11.515Z,24.89
2018-06-29T06:20:11.521Z,24.91
2018-06-29T06:21:11.530Z,24.80
2018-06-29T06:22:11.529Z,24.70
2018-06-29T06:23:11.538Z,24.61
2018-06-29T06:24:11.542Z,24.58
2018-06-29T06:25:11.556Z,24.45
2018-06-29T06:26:11.546Z,24.28
2018-06-29T06:27:11.552Z,24.18
2018-06-29T06:28:11.571Z,24.10
2018-06-29T06:29:11.560Z,23.99
2018-06-29T06:30:11.565Z,23.91
2018-06-29T06:31:11.570Z,23.93
2018-06-29T06:32:11.673Z,23.84
2018-06-29T06:33:12.667Z,23.74
2018-06-29T06:34:12.590Z,23.69
2018-06-29T06:35:11.642Z,23.83
2018-06-29T06:36:11.591Z,23.68
2018-06-29T06:37:12.676Z,23.68
2018-06-29T06:38:12.656Z,23.56
2018-06-29T06:39:12.588Z,23.65
2018-06-29T06:40:12.691Z,23.69
2018-06-29T06:41:12.572Z,23.62
2018-06-29T06:42:12.606Z,23.55
2018-06-29T06:43:12.632Z,23.59
2018-06-29T06:44:12.608Z,23.62
2018-06-29T06:45:11.737Z,23.63
2018-06-29T06:46:11.796Z,23.77
2018-06-29T06:47:12.650Z,23.80
2018-06-29T06:48:11.765Z,23.86
2018-06-29T06:49:11.750Z,23.86
2018-06-29T06:50:11.850Z,23.93
2018-06-29T06:51:11.876Z,23.87
2018-06-29T06:52:13.369Z,23.92
2018-06-29T06:53:12.613Z,23.95
2018-06-29T06:54:12.700Z,23.91
2018-06-29T06:55:11.764Z,24.01
2018-06-29T06:56:13.832Z,24.03
2018-06-29T06:57:12.664Z,23.99
2018-06-29T06:58:11.916Z,23.91
2018-06-29T06:59:11.765Z,23.91
2018-06-29T07:00:11.993Z,23.86
2018-06-29T07:01:11.741Z,23.93
2018-06-29T07:02:12.604Z,23.88
2018-06-29T07:03:12.643Z,23.78
2018-06-29T07:04:12.622Z,23.87
2018-06-29T07:05:13.102Z,23.73
2018-06-29T07:06:12.660Z,23.66
2018-06-29T07:07:11.857Z,23.69
2018-06-29T07:08:12.614Z,23.68
2018-06-29T07:09:12.633Z,23.71
2018-06-29T07:10:12.634Z,23.61
2018-06-29T07:11:12.634Z,23.73
2018-06-29T07:12:12.599Z,23.74
2018-06-29T07:13:12.648Z,23.76
2018-06-29T07:14:12.587Z,23.74
2018-06-29T07:15:12.586Z,23.76
2018-06-29T07:16:13.098Z,23.74
2018-06-29T07:17:12.597Z,23.73
2018-06-29T07:18:12.710Z,23.66
2018-06-29T07:19:13.215Z,23.65
2018-06-29T07:20:12.776Z,23.65
2018-06-29T07:21:12.596Z,23.61
2018-06-29T07:22:13.169Z,23.68
2018-06-29T07:23:12.114Z,23.59
2018-06-29T07:24:12.574Z,23.63
2018-06-29T07:25:11.837Z,23.54
2018-06-29T07:26:12.000Z,23.50
2018-06-29T07:27:11.809Z,23.61
2018-06-29T07:28:11.805Z,23.58
2018-06-29T07:29:11.806Z,23.61
2018-06-29T07:30:11.810Z,23.56
2018-06-29T07:31:11.848Z,23.47
2018-06-29T07:32:12.268Z,23.48
2018-06-29T07:33:12.181Z,23.48
2018-06-29T07:34:13.229Z,23.43
2018-06-29T07:35:12.292Z,23.55
2018-06-29T07:36:12.745Z,23.51
2018-06-29T07:37:13.428Z,23.56
2018-06-29T07:38:14.736Z,23.61
2018-06-29T07:39:12.724Z,23.66
2018-06-29T07:40:11.910Z,23.69
2018-06-29T07:41:12.241Z,23.74
2018-06-29T07:42:12.771Z,23.76
2018-06-29T07:43:12.288Z,23.77
2018-06-29T07:44:11.959Z,23.73
2018-06-29T07:45:11.917Z,23.69
2018-06-29T07:46:12.683Z,23.71
2018-06-29T07:47:11.871Z,23.71
2018-06-29T07:48:11.975Z,23.77
2018-06-29T07:49:11.941Z,23.86
2018-06-29T07:50:11.890Z,23.87
2018-06-29T07:51:11.896Z,23.84
2018-06-29T07:52:12.026Z,23.87
2018-06-29T07:53:12.593Z,23.87
2018-06-29T07:54:11.922Z,23.81
2018-06-29T07:55:12.234Z,23.88
2018-06-29T07:56:12.012Z,23.87
2018-06-29T07:57:11.927Z,23.93
2018-06-29T07:58:12.005Z,23.95
2018-06-29T08:00:12.051Z,23.91
2018-06-29T08:01:11.930Z,23.91
2018-06-29T08:02:12.854Z,23.87
2018-06-29T08:03:11.985Z,23.92
2018-06-29T08:04:11.952Z,23.88
2018-06-29T08:05:12.179Z,23.88
2018-06-29T08:06:12.018Z,23.88
2018-06-29T08:07:11.945Z,24.03
2018-06-29T08:08:11.951Z,23.98
2018-06-29T08:09:11.964Z,24.06
2018-06-29T08:10:12.005Z,24.10
2018-06-29T08:11:11.961Z,24.16
2018-06-29T08:12:12.046Z,24.17
2018-06-29T08:13:12.101Z,24.16
2018-06-29T08:14:11.985Z,24.05
2018-06-29T08:15:12.031Z,24.14
2018-06-29T08:16:12.033Z,24.18
2018-06-29T08:17:12.335Z,24.20
2018-06-29T08:18:12.025Z,24.16
2018-06-29T08:19:12.001Z,24.18
2018-06-29T08:20:12.183Z,24.21
2018-06-29T08:21:12.139Z,24.26
2018-06-29T08:22:12.006Z,24.29
2018-06-29T08:23:12.189Z,24.26
2018-06-29T08:24:12.143Z,24.26
2018-06-29T08:25:12.041Z,24.29
2018-06-29T08:26:12.029Z,24.32
2018-06-29T08:27:12.026Z,24.33
2018-06-29T08:28:12.042Z,24.38
2018-06-29T08:29:12.122Z,24.39
2018-06-29T08:30:12.101Z,24.36
2018-06-29T08:31:12.049Z,24.35
2018-06-29T08:32:12.108Z,24.36
2018-06-29T08:33:12.045Z,24.91
2018-06-29T08:34:13.176Z,25.77
2018-06-29T08:35:12.288Z,26.51
2018-06-29T08:36:12.057Z,27.11
2018-06-29T08:37:12.061Z,27.45
2018-06-29T08:38:12.064Z,27.60
2018-06-29T08:39:12.071Z,27.87
2018-06-29T08:40:12.098Z,28.38
2018-06-29T08:41:12.080Z,29.17
2018-06-29T08:42:12.086Z,29.69
2018-06-29T08:43:12.089Z,30.15
2018-06-29T08:44:12.135Z,30.50
2018-06-29T08:45:12.102Z,30.99
2018-06-29T08:46:12.250Z,31.49
2018-06-29T08:47:12.127Z,32.15
2018-06-29T08:48:12.119Z,32.38
2018-06-29T08:49:12.125Z,32.52
2018-06-29T08:50:12.140Z,32.23
2018-06-29T08:51:12.139Z,32.01
2018-06-29T08:52:12.155Z,31.87
2018-06-29T08:53:12.264Z,31.73
2018-06-29T08:54:12.161Z,31.49
2018-06-29T08:55:12.188Z,31.21
2018-06-29T08:56:12.175Z,31.33
2018-06-29T08:57:12.181Z,31.34
2018-06-29T08:58:12.187Z,31.33
2018-06-29T08:59:12.225Z,31.59
2018-06-29T09:00:12.205Z,32.19
2018-06-29T09:01:12.266Z,32.63
2018-06-29T09:02:12.241Z,32.97
2018-06-29T09:03:12.230Z,33.42
2018-06-29T09:04:27.324Z,33.52
2018-06-29T09:05:12.245Z,33.80
2018-06-29T09:06:12.271Z,34.03
2018-06-29T09:07:12.265Z,34.06
2018-06-29T09:08:12.341Z,33.65
2018-06-29T09:09:12.282Z,33.28
2018-06-29T09:10:12.549Z,33.07
2018-06-29T09:11:12.799Z,32.86
2018-06-29T09:12:15.202Z,33.07
2018-06-29T09:13:12.451Z,33.46
2018-06-29T09:14:13.418Z,33.43
2018-06-29T09:15:12.458Z,33.40
2018-06-29T09:16:12.344Z,33.12
2018-06-29T09:17:12.419Z,33.11
2018-06-29T09:18:12.361Z,32.97
2018-06-29T09:19:12.507Z,33.04
2018-06-29T09:20:12.381Z,33.37
2018-06-29T09:21:12.387Z,33.49
2018-06-29T09:22:12.395Z,33.80
2018-06-29T09:23:12.406Z,33.77
2018-06-29T09:24:12.526Z,33.94
2018-06-29T09:25:12.424Z,33.99
2018-06-29T09:26:13.208Z,34.32
2018-06-29T09:27:12.446Z,34.75
2018-06-29T09:28:12.781Z,35.15
2018-06-29T09:29:12.468Z,35.61
2018-06-29T09:30:12.481Z,35.46
2018-06-29T09:31:12.485Z,35.11
2018-06-29T09:32:13.391Z,35.26
2018-06-29T09:33:12.506Z,35.44
2018-06-29T09:34:12.567Z,35.67
2018-06-29T09:35:12.525Z,36.09
2018-06-29T09:36:12.537Z,36.61
2018-06-29T09:37:12.548Z,37.08
2018-06-29T09:38:12.555Z,37.21
2018-06-29T09:39:12.567Z,36.99
2018-06-29T09:40:12.579Z,36.51
2018-06-29T09:41:12.590Z,36.31
2018-06-29T09:42:12.598Z,36.23
2018-06-29T09:43:12.615Z,36.39
2018-06-29T09:44:12.622Z,36.30
2018-06-29T09:45:12.656Z,36.46
2018-06-29T09:46:12.646Z,36.76
2018-06-29T09:47:12.657Z,36.52
2018-06-29T09:48:12.714Z,36.64
2018-06-29T09:49:12.685Z,36.65
2018-06-29T09:50:12.694Z,36.70
2018-06-29T09:51:12.705Z,36.25
2018-06-29T09:52:12.718Z,36.28
2018-06-29T09:53:12.728Z,36.80
2018-06-29T09:54:12.739Z,37.03
2018-06-29T09:55:12.757Z,37.35
2018-06-29T09:56:12.766Z,37.70
2018-06-29T09:57:12.780Z,37.71
2018-06-29T09:58:12.845Z,37.82
2018-06-29T09:59:12.806Z,38.28
2018-06-29T10:00:12.815Z,38.60
2018-06-29T10:01:12.861Z,38.54
2018-06-29T10:02:12.837Z,38.61
2018-06-29T10:03:12.852Z,38.24
2018-06-29T10:04:12.871Z,38.19
2018-06-29T10:05:12.876Z,37.74
2018-06-29T10:06:13.738Z,37.44
2018-06-29T10:07:12.906Z,37.58
2018-06-29T10:08:12.916Z,37.82
2018-06-29T10:09:13.411Z,38.11
2018-06-29T10:10:12.963Z,38.61
2018-06-29T10:11:12.955Z,38.54
2018-06-29T10:12:13.062Z,38.71
2018-06-29T10:13:13.133Z,38.74
2018-06-29T10:14:13.059Z,38.89
2018-06-29T10:15:13.008Z,39.30
2018-06-29T10:16:13.023Z,39.52
2018-06-29T10:17:13.038Z,39.22
2018-06-29T10:18:13.051Z,39.43
2018-06-29T10:19:13.076Z,39.21
2018-06-29T10:20:13.139Z,38.60
2018-06-29T10:21:13.095Z,38.42
2018-06-29T10:22:13.212Z,38.80
2018-06-29T10:23:13.194Z,38.43
2018-06-29T10:24:13.148Z,37.74
2018-06-29T10:25:13.226Z,37.78
2018-06-29T10:26:13.265Z,37.86
2018-06-29T10:27:13.177Z,37.21
2018-06-29T10:28:13.317Z,36.79
2018-06-29T10:29:13.220Z,37.01
2018-06-29T10:30:13.220Z,37.77
2018-06-29T10:31:13.233Z,38.45
2018-06-29T10:32:13.248Z,38.86
2018-06-29T10:33:13.270Z,39.34
2018-06-29T10:34:13.286Z,39.59
2018-06-29T10:35:13.293Z,40.20
2018-06-29T10:36:13.307Z,40.73
2018-06-29T10:37:13.323Z,40.92
2018-06-29T10:38:13.331Z,40.87
2018-06-29T10:39:13.348Z,40.87
2018-06-29T10:40:13.367Z,40.66
2018-06-29T10:41:13.380Z,40.12
2018-06-29T10:42:13.393Z,40.16
2018-06-29T10:43:13.409Z,39.97
2018-06-29T10:44:13.426Z,39.56
2018-06-29T10:45:13.442Z,39.09
2018-06-29T10:46:13.453Z,39.26
2018-06-29T10:47:13.472Z,39.67
2018-06-29T10:48:13.483Z,39.96
2018-06-29T10:49:13.512Z,39.68
2018-06-29T10:50:13.526Z,39.31
2018-06-29T10:51:13.548Z,39.60
2018-06-29T10:52:13.553Z,39.90
2018-06-29T10:53:13.563Z,40.31
2018-06-29T10:54:13.687Z,40.81
2018-06-29T10:55:14.365Z,41.28
2018-06-29T10:56:13.612Z,41.49
2018-06-29T10:57:13.626Z,40.85
2018-06-29T10:58:13.639Z,40.68
2018-06-29T10:59:13.657Z,40.84
2018-06-29T11:00:13.673Z,40.78
2018-06-29T11:01:13.707Z,40.84
2018-06-29T11:02:13.707Z,40.87
2018-06-29T11:03:13.741Z,40.59
2018-06-29T11:04:13.738Z,40.53
2018-06-29T11:05:14.005Z,40.56
2018-06-29T11:06:13.780Z,40.70
2018-06-29T11:07:14.176Z,41.02
2018-06-29T11:08:13.832Z,40.31
2018-06-29T11:09:13.817Z,39.96
2018-06-29T11:10:14.806Z,39.52
2018-06-29T11:11:13.862Z,39.04
2018-06-29T11:12:13.866Z,39.06
2018-06-29T11:13:13.897Z,39.26
2018-06-29T11:14:13.897Z,39.56
2018-06-29T11:15:14.153Z,39.68
2018-06-29T11:16:13.929Z,39.33
2018-06-29T11:17:13.945Z,38.68
2018-06-29T11:18:13.962Z,38.11
2018-06-29T11:19:13.980Z,37.93
2018-06-29T11:20:13.994Z,38.05
2018-06-29T11:21:14.010Z,38.15
2018-06-29T11:22:14.039Z,38.21
2018-06-29T11:23:14.038Z,38.48
2018-06-29T11:24:14.056Z,39.03
2018-06-29T11:25:14.069Z,39.19
2018-06-29T11:26:14.122Z,38.82
2018-06-29T11:27:14.104Z,39.12
2018-06-29T11:28:14.114Z,39.52
2018-06-29T11:29:14.341Z,39.97
2018-06-29T11:30:14.215Z,39.63
2018-06-29T11:31:14.178Z,38.92
2018-06-29T11:32:14.177Z,38.73
2018-06-29T11:33:14.192Z,38.73
2018-06-29T11:34:14.215Z,39.34
2018-06-29T11:35:14.221Z,39.90
2018-06-29T11:36:14.247Z,40.18
2018-06-29T11:37:14.254Z,40.61
2018-06-29T11:38:14.268Z,40.75
2018-06-29T11:39:14.283Z,40.95
2018-06-29T11:40:14.304Z,41.02
2018-06-29T11:41:14.321Z,40.88
2018-06-29T11:42:14.335Z,40.88
2018-06-29T11:43:14.369Z,40.88
2018-06-29T11:44:14.395Z,40.58
2018-06-29T11:45:14.383Z,40.38
2018-06-29T11:46:14.398Z,40.84
2018-06-29T11:47:14.581Z,41.03
2018-06-29T11:48:14.448Z,40.95
2018-06-29T11:49:14.451Z,41.19
2018-06-29T11:50:14.465Z,41.47
2018-06-29T11:51:14.483Z,41.71
2018-06-29T11:52:14.501Z,42.16
2018-06-29T11:53:16.753Z,42.67
2018-06-29T11:54:14.548Z,43.00
2018-06-29T11:55:14.576Z,43.20
2018-06-29T11:56:14.573Z,43.65
2018-06-29T11:57:14.595Z,43.99
2018-06-29T11:58:14.610Z,44.22
2018-06-29T11:59:14.628Z,43.54
2018-06-29T12:00:14.645Z,42.89
2018-06-29T12:01:14.663Z,42.32
2018-06-29T12:02:14.682Z,41.60
2018-06-29T12:03:14.698Z,41.33
2018-06-29T12:04:14.718Z,40.62
2018-06-29T12:05:14.743Z,40.15
2018-06-29T12:06:14.762Z,40.06
2018-06-29T12:07:14.823Z,39.97
2018-06-29T12:08:14.787Z,40.34
2018-06-29T12:09:14.805Z,40.41
2018-06-29T12:10:14.826Z,40.41
2018-06-29T12:11:14.838Z,40.26
2018-06-29T12:12:14.855Z,40.49
2018-06-29T12:13:14.883Z,40.97
2018-06-29T12:14:14.886Z,41.04
2018-06-29T12:15:14.904Z,41.36
2018-06-29T12:16:14.934Z,41.88
2018-06-29T12:17:14.941Z,42.12
2018-06-29T12:18:16.011Z,42.55
2018-06-29T12:19:14.975Z,43.01
2018-06-29T12:20:14.991Z,42.89
2018-06-29T12:21:15.007Z,42.60
2018-06-29T12:22:15.026Z,42.21
2018-06-29T12:23:15.067Z,42.07
2018-06-29T12:24:15.061Z,42.14
2018-06-29T12:25:15.075Z,41.97
2018-06-29T12:26:15.102Z,42.29
2018-06-29T12:27:15.113Z,42.82
2018-06-29T12:28:15.135Z,43.15
2018-06-29T12:29:15.145Z,43.49
2018-06-29T12:30:15.163Z,43.96
2018-06-29T12:31:15.181Z,44.36
2018-06-29T12:32:15.198Z,43.91
2018-06-29T12:33:15.215Z,43.38
2018-06-29T12:34:15.232Z,43.19
2018-06-29T12:35:15.253Z,43.10
2018-06-29T12:36:15.288Z,42.99
2018-06-29T12:37:15.287Z,43.03
2018-06-29T12:38:15.321Z,43.16
2018-06-29T12:39:15.320Z,43.53
2018-06-29T12:40:15.345Z,43.94
2018-06-29T12:41:15.376Z,44.29
2018-06-29T12:42:15.378Z,44.45
2018-06-29T12:43:15.420Z,44.72
2018-06-29T12:44:15.412Z,45.06
2018-06-29T12:45:15.432Z,44.84
2018-06-29T12:46:15.449Z,43.84
2018-06-29T12:47:15.467Z,42.53
2018-06-29T12:48:15.544Z,41.57
2018-06-29T12:49:15.508Z,40.88
2018-06-29T12:50:15.519Z,40.54
2018-06-29T12:51:15.548Z,40.41
2018-06-29T12:52:15.554Z,39.75
2018-06-29T12:53:15.571Z,39.62